createdAt,value
2019-01-26T00:01:15.785Z,100527.09
2019-01-26T00:06:21.188Z,100517.12
2019-01-26T00:11:26.506Z,100513.30
2019-01-26T00:16:31.813Z,100502.02
2019-01-26T00:21:37.164Z,100505.43
2019-01-26T00:26:42.508Z,100505.58
2019-01-26T00:31:47.807Z,100503.98
2019-01-26T00:36:53.116Z,100506.65
2019-01-26T00:41:58.410Z,100503.27
2019-01-26T00:47:03.721Z,100490.55
2019-01-26T00:52:09.031Z,100487.30
2019-01-26T00:57:14.532Z,100490.34
2019-01-26T01:02:19.814Z,100491.13
2019-01-26T01:07:25.264Z,100489.95
2019-01-26T01:12:30.747Z,100482.42
2019-01-26T01:17:36.097Z,100492.85
2019-01-26T01:22:41.388Z,100486.20
2019-01-26T01:27:46.732Z,100478.59
2019-01-26T01:32:52.189Z,100475.61
2019-01-26T01:37:57.496Z,100482.48
2019-01-26T01:43:02.838Z,100479.00
2019-01-26T01:48:08.177Z,100468.45
2019-01-26T01:53:13.523Z,100457.75
2019-01-26T01:58:18.943Z,100460.82
2019-01-26T02:03:24.379Z,100451.49
2019-01-26T02:08:29.724Z,100442.23
2019-01-26T02:13:35.037Z,100437.55
2019-01-26T02:18:40.379Z,100438.02
2019-01-26T02:23:45.697Z,100424.61
2019-01-26T02:28:52.700Z,100426.38
2019-01-26T02:33:58.104Z,100433.59
2019-01-26T02:39:06.466Z,100432.88
2019-01-26T02:44:12.096Z,100439.44
2019-01-26T02:49:17.682Z,100434.11
2019-01-26T02:54:23.007Z,100433.48
2019-01-26T02:59:28.531Z,100439.38
2019-01-26T03:04:33.836Z,100428.92
2019-01-26T03:09:39.147Z,100434.38
2019-01-26T03:14:44.520Z,100429.95
2019-01-26T03:19:49.879Z,100423.67
2019-01-26T03:24:55.203Z,100421.65
2019-01-26T03:30:00.567Z,100413.07
2019-01-26T03:35:06.829Z,100415.23
2019-01-26T03:40:14.027Z,100412.03
2019-01-26T03:45:19.875Z,100400.58
2019-01-26T03:50:25.673Z,100394.05
2019-01-26T03:55:31.371Z,100401.49
2019-01-26T04:00:36.845Z,100406.72
2019-01-26T04:05:42.567Z,100405.09
2019-01-26T04:10:47.950Z,100400.08
2019-01-26T04:15:53.280Z,100396.33
2019-01-26T04:20:58.840Z,100393.22
2019-01-26T04:26:04.492Z,100388.42
2019-01-26T04:31:09.829Z,100383.34
2019-01-26T04:36:15.364Z,100383.82
2019-01-26T04:41:20.861Z,100372.67
2019-01-26T04:46:26.338Z,100376.76
2019-01-26T04:51:31.712Z,100379.25
2019-01-26T04:56:37.077Z,100376.20
2019-01-26T05:01:42.416Z,100373.19
2019-01-26T05:06:47.779Z,100379.28
2019-01-26T05:11:53.124Z,100374.06
2019-01-26T05:16:58.463Z,100375.42
2019-01-26T05:22:03.777Z,100376.36
2019-01-26T05:27:09.170Z,100379.05
2019-01-26T05:32:14.501Z,100368.95
2019-01-26T05:37:19.790Z,100370.35
2019-01-26T05:42:25.124Z,100374.48
2019-01-26T05:47:30.513Z,100356.86
2019-01-26T05:52:35.889Z,100339.26
2019-01-26T05:57:41.242Z,100342.82
2019-01-26T06:02:46.599Z,100337.16
2019-01-26T06:07:51.961Z,100334.05
2019-01-26T06:12:58.850Z,100350.67
2019-01-26T06:18:04.456Z,100348.42
2019-01-26T06:23:09.758Z,100337.68
2019-01-26T06:28:15.064Z,100342.44
2019-01-26T06:33:20.392Z,100343.06
2019-01-26T06:38:25.715Z,100344.12
2019-01-26T06:43:31.033Z,100344.25
2019-01-26T06:48:36.341Z,100342.92
2019-01-26T06:53:41.684Z,100342.44
2019-01-26T06:58:47.019Z,100342.22
2019-01-26T07:03:52.399Z,100330.95
2019-01-26T07:08:57.739Z,100345.94
2019-01-26T07:14:03.080Z,100344.07
2019-01-26T07:19:08.541Z,100342.02
2019-01-26T07:24:13.891Z,100347.56
2019-01-26T07:29:19.251Z,100350.42
2019-01-26T07:34:24.739Z,100352.19
2019-01-26T07:39:30.172Z,100358.60
2019-01-26T07:44:35.500Z,100365.18
2019-01-26T07:49:40.931Z,100359.13
2019-01-26T07:54:46.311Z,100354.45
2019-01-26T07:59:51.741Z,100349.31
2019-01-26T08:04:57.104Z,100344.97
2019-01-26T08:10:02.569Z,100348.11
2019-01-26T08:15:10.695Z,100345.86
2019-01-26T08:20:18.727Z,100346.08
2019-01-26T08:25:24.308Z,100348.87
2019-01-26T08:30:29.648Z,100341.98
2019-01-26T08:35:35.048Z,100341.16
2019-01-26T08:40:40.385Z,100337.31
2019-01-26T08:45:45.764Z,100339.14
2019-01-26T08:50:51.081Z,100331.34
2019-01-26T08:55:56.418Z,100323.84
2019-01-26T09:01:01.779Z,100319.20
2019-01-26T09:06:26.217Z,100322.18
2019-01-26T09:11:31.542Z,100322.27
2019-01-26T09:16:36.861Z,100305.27
2019-01-26T09:21:42.227Z,100303.38
2019-01-26T09:26:47.666Z,100301.23
2019-01-26T09:31:53.082Z,100296.67
2019-01-26T09:36:58.506Z,100303.09
2019-01-26T09:42:03.853Z,100295.07
2019-01-26T09:47:09.189Z,100292.41
2019-01-26T09:52:14.606Z,100303.19
2019-01-26T09:57:20.083Z,100324.42
2019-01-26T10:02:25.784Z,100317.69
2019-01-26T10:07:31.093Z,100308.96
2019-01-26T10:12:36.445Z,100311.57
2019-01-26T10:17:45.999Z,100305.68
2019-01-26T10:22:50.838Z,100311.81
2019-01-26T10:27:56.327Z,100314.63
2019-01-26T10:33:01.909Z,100310.65
2019-01-26T10:38:07.333Z,100298.81
2019-01-26T10:43:14.007Z,100306.55
2019-01-26T10:48:19.334Z,100300.92
2019-01-26T10:53:24.665Z,100291.97
2019-01-26T10:58:30.032Z,100285.69
2019-01-26T11:03:35.436Z,100279.20
2019-01-26T11:08:40.941Z,100276.02
2019-01-26T11:13:46.276Z,100259.95
2019-01-26T11:18:51.693Z,100260.83
2019-01-26T11:23:57.088Z,100267.73
2019-01-26T11:29:02.495Z,100269.98
2019-01-26T11:34:07.910Z,100255.79
2019-01-26T11:39:13.349Z,100247.44
2019-01-26T11:44:18.847Z,100229.95
2019-01-26T11:49:24.171Z,100227.55
2019-01-26T11:54:29.554Z,100214.06
2019-01-26T11:59:34.891Z,100202.41
2019-01-26T12:04:59.262Z,100197.70
2019-01-26T12:10:05.429Z,100189.45
2019-01-26T12:15:14.266Z,100189.13
2019-01-26T12:20:19.654Z,100174.82
2019-01-26T12:25:25.128Z,100173.16
2019-01-26T12:30:30.526Z,100161.21
2019-01-26T12:35:35.959Z,100159.23
2019-01-26T12:40:41.352Z,100151.70
2019-01-26T12:45:46.679Z,100149.77
2019-01-26T12:50:52.111Z,100149.25
2019-01-26T12:55:57.445Z,100142.19
2019-01-26T13:01:02.842Z,100145.00
2019-01-26T13:06:08.246Z,100133.84
2019-01-26T13:11:25.987Z,100129.70
2019-01-26T13:16:31.335Z,100111.77
2019-01-26T13:21:36.746Z,100113.98
2019-01-26T13:26:42.077Z,100094.52
2019-01-26T13:31:47.401Z,100083.77
2019-01-26T13:36:52.913Z,100072.39
2019-01-26T13:41:58.351Z,100056.81
2019-01-26T13:47:03.864Z,100053.13
2019-01-26T13:52:09.196Z,100046.50
2019-01-26T13:57:14.516Z,100040.11
2019-01-26T14:02:19.890Z,100046.52
2019-01-26T14:07:25.280Z,100031.83
2019-01-26T14:12:30.589Z,100027.33
2019-01-26T14:17:35.921Z,100023.55
2019-01-26T14:22:41.360Z,100023.47
2019-01-26T14:27:46.727Z,100014.91
2019-01-26T14:32:52.667Z,100007.63
2019-01-26T14:37:58.212Z,99996.27
2019-01-26T14:43:03.584Z,99992.96
2019-01-26T14:48:08.919Z,99992.19
2019-01-26T14:53:14.559Z,99981.04
2019-01-26T14:58:19.968Z,99975.64
2019-01-26T15:03:25.285Z,99960.56
2019-01-26T15:08:30.706Z,99960.05
2019-01-26T15:13:36.111Z,99955.54
2019-01-26T15:18:41.608Z,99946.98
2019-01-26T15:23:46.944Z,99938.31
2019-01-26T15:28:52.334Z,99941.16
2019-01-26T15:33:57.780Z,99922.52
2019-01-26T15:39:04.978Z,99909.32
2019-01-26T15:44:10.313Z,99899.41
2019-01-26T15:49:15.602Z,99894.67
2019-01-26T15:54:20.890Z,99887.64
2019-01-26T15:59:26.227Z,99884.05
2019-01-26T16:04:31.740Z,99875.19
2019-01-26T16:09:37.074Z,99879.61
2019-01-26T16:14:42.406Z,99873.72
2019-01-26T16:19:47.724Z,99859.97
2019-01-26T16:24:53.074Z,99846.61
2019-01-26T16:29:58.420Z,99840.66
2019-01-26T16:35:03.738Z,99834.89
2019-01-26T16:40:12.743Z,99823.11
2019-01-26T16:45:22.038Z,99826.54
2019-01-26T16:50:29.326Z,99820.63
2019-01-26T16:55:34.724Z,99817.82
2019-01-26T17:00:46.580Z,99798.53
2019-01-26T17:05:52.017Z,99783.61
2019-01-26T17:10:57.336Z,99778.93
2019-01-26T17:16:02.682Z,99776.38
2019-01-26T17:21:08.008Z,99759.59
2019-01-26T17:26:13.368Z,99754.23
2019-01-26T17:31:18.694Z,99750.08
2019-01-26T17:36:24.041Z,99729.48
2019-01-26T17:41:29.405Z,99718.33
2019-01-26T17:46:34.771Z,99713.45
2019-01-26T17:51:40.378Z,99700.06
2019-01-26T17:56:45.715Z,99696.06
2019-01-26T18:01:51.050Z,99689.20
2019-01-26T18:06:56.467Z,99673.60
2019-01-26T18:12:01.865Z,99669.84
2019-01-26T18:17:07.820Z,99664.36
2019-01-26T18:22:13.142Z,99647.48
2019-01-26T18:27:18.489Z,99636.53
2019-01-26T18:32:23.856Z,99633.81
2019-01-26T18:37:29.207Z,99630.94
2019-01-26T18:42:34.526Z,99626.10
2019-01-26T18:47:39.935Z,99618.91
2019-01-26T18:52:45.259Z,99613.78
2019-01-26T18:57:50.539Z,99596.14
2019-01-26T19:03:31.279Z,99586.38
2019-01-26T19:08:36.619Z,99580.36
2019-01-26T19:13:41.932Z,99567.48
2019-01-26T19:18:47.287Z,99558.73
2019-01-26T19:23:52.622Z,99556.14
2019-01-26T19:28:57.921Z,99540.56
2019-01-26T19:34:03.284Z,99533.34
2019-01-26T19:39:09.443Z,99524.66
2019-01-26T19:44:14.870Z,99520.27
2019-01-26T19:49:20.185Z,99525.98
2019-01-26T19:54:25.494Z,99512.59
2019-01-26T19:59:30.816Z,99500.71
2019-01-26T20:04:36.167Z,99495.06
2019-01-26T20:09:41.502Z,99477.20
2019-01-26T20:14:46.866Z,99470.75
2019-01-26T20:19:52.259Z,99465.48
2019-01-26T20:24:57.620Z,99453.53
2019-01-26T20:30:02.920Z,99441.19
2019-01-26T20:35:08.305Z,99414.98
2019-01-26T20:40:15.731Z,99413.05
2019-01-26T20:45:26.778Z,99405.73
2019-01-26T20:50:32.156Z,99403.20
2019-01-26T20:55:37.531Z,99385.89
2019-01-26T21:00:42.869Z,99374.48
2019-01-26T21:05:48.227Z,99363.26
2019-01-26T21:10:53.571Z,99333.83
2019-01-26T21:15:58.966Z,99329.38
2019-01-26T21:21:04.316Z,99318.03
2019-01-26T21:26:09.717Z,99303.77
2019-01-26T21:31:15.028Z,99291.83
2019-01-26T21:36:20.644Z,99282.82
2019-01-26T21:41:25.960Z,99275.11
2019-01-26T21:46:31.247Z,99265.76
2019-01-26T21:51:39.143Z,99247.32
2019-01-26T21:56:43.686Z,99233.09
2019-01-26T22:01:49.016Z,99228.41
2019-01-26T22:06:54.415Z,99222.39
2019-01-26T22:11:59.719Z,99211.30
2019-01-26T22:17:05.027Z,99205.08
2019-01-26T22:22:10.404Z,99193.01
2019-01-26T22:27:15.832Z,99184.09
2019-01-26T22:32:21.159Z,99165.42
2019-01-26T22:37:26.569Z,99163.47
2019-01-26T22:42:31.876Z,99155.01
2019-01-26T22:47:37.204Z,99142.83
2019-01-26T22:52:42.551Z,99129.98
2019-01-26T22:57:48.840Z,99118.52
2019-01-26T23:02:58.558Z,99102.97
2019-01-26T23:08:31.251Z,99095.36
2019-01-26T23:13:55.208Z,99073.53
2019-01-26T23:19:58.363Z,99056.98
2019-01-26T23:25:39.071Z,99037.84
2019-01-26T23:31:12.519Z,99028.83
2019-01-26T23:36:18.047Z,99019.77
2019-01-26T23:41:23.395Z,99003.66
2019-01-26T23:46:28.683Z,98993.08
2019-01-26T23:51:33.981Z,98979.23
2019-01-26T23:56:39.308Z,98964.31
